Terminal Aerodrome Forecast
Issued by NWS Sterling, VA

Current Version | Previous Version | Text Only | Print | Product List | Glossary On
Versions: 1 2 3 4 5 6 7 8 9 10 11 12 13 14 15 16 17 18 19 20 21 22 23 24 25 26 27
000
FTUS41 KLWX 291458 AAB
TAFCHO
TAF AMD
KCHO 291458Z 2915/3012 22004KT 3SM HZ BKN009
     FM291600 19004KT P6SM SCT015 BKN050
     FM291800 17005KT P6SM VCTS BKN050CB
     FM300000 00000KT P6SM BKN090
     FM300500 00000KT P6SM SCT250=

USA.gov is the U.S. government's official web portal to all federal, state and local government web resources and services.